Kezdőlap
METAR-TAF:

METAR-TAF

Repülőterek :

Custer County Airport

Custer, Dél-Dakota, Amerikai Egyesült Államok

földrajzi szélesség: 43-43-59N, földrajzi hosszúság: 103-37-03W, magasság: 1707 m

Jelenlegi meteorológiai megfigyelések

A jelentés 1 órával és 6 perccel ezelõtt készült, 19:53 UTC
Nyugat-északnyugati szél 12 kt széllökések: 22 kt
Hőmérséklet 12°C
Páratartalom 71%
Légköri nyomás 1012 hPa
Látótávolság: 16.1 km
Szórványos felhőzet 1900 lábon
Szórványos felhőzet 6000 lábon
Szakadozott felhőzet 11000 lábon

METAR: KCUT 261953Z AUTO 29012G22KT 10SM SCT019 SCT060 BKN110 12/07 A2988 RMK AO2 LTG DSNT NE RAE28 SLP086 P0003 T01220072

Idő: 14:59 (20:59 UTC)


TAF: hiányzik

Meteorológiai megfigyelések és előrejelzések több, mint 4000 repülőtéren (METAR és TAF jelentéseket).

A térképen piros és sárga pontok jelzik az elérhető meteorológiai állomásokat.

Mozgassa az egeret a pont fölött, hogy megjelenjen az állomás neve.

Azután kattintson az időjárási megfigyelések és előrejelzések megtekintéséhez.

A térkép megváltoztatása: kattintson a fekete keresztel jelölt zöld gombra ráközelítéshez, a vonallal jelölt zöld gombra távolításhoz, vagy a zöld nyilakra a szomszédos térképek eléréséhez.


METAR-TAF: